Time;durP1;ratioP1;P1;durP2;ratioP2;P2;SDS_P1;SDS_P2;PMS_P1;PMS_P2;Temp;Humidity;BMP_temperature;BMP_pressure;BME280_temperature;BME280_humidity;BME280_pressure;Samples;Min_cycle;Max_cycle;Signal;HPM_P1;HPM_P2
2022/12/14 00:00:12;;;;;;;0.73;0.73;;;;;;;7.88;75.07;94998.81;5070901;28;20465;-57
2022/12/14 00:02:40;;;;;;;1.10;1.00;;;;;;;7.40;77.96;95013.13;5070704;28;20520;-57
2022/12/14 00:05:09;;;;;;;1.03;1.03;;;;;;;6.79;77.59;94939.00;5071670;28;20425;-57
2022/12/14 00:07:37;;;;;;;0.83;0.80;;;;;;;7.20;78.93;95011.19;5072279;28;20474;-57
2022/12/14 00:10:08;;;;;;;0.73;0.73;;;;;;;7.44;77.71;94998.38;5078189;28;20421;-57
2022/12/14 00:12:37;;;;;;;0.37;0.27;;;;;;;6.48;76.71;94821.38;5077340;28;20428;-57
2022/12/14 00:15:07;;;;;;;0.60;0.60;;;;;;;7.52;76.95;95009.22;5077541;28;20445;-57
2022/12/14 00:17:35;;;;;;;1.07;1.07;;;;;;;7.21;77.55;94952.13;5078008;28;20434;-57
2022/12/14 00:20:05;;;;;;;0.70;0.60;;;;;;;7.74;76.79;95008.25;5077842;28;20433;-57
2022/12/14 00:22:33;;;;;;;1.37;1.37;;;;;;;7.27;76.56;94942.41;5077269;28;21235;-57
2022/12/14 00:25:02;;;;;;;1.70;1.60;;;;;;;7.89;76.37;95016.22;5078039;28;20447;-57
2022/12/14 00:27:32;;;;;;;1.53;1.43;;;;;;;7.69;76.03;95001.91;5077957;28;20477;-57
2022/12/14 00:30:00;;;;;;;2.30;2.20;;;;;;;7.53;76.95;94984.47;5077199;28;20437;-57
2022/12/14 00:32:28;;;;;;;0.50;0.50;;;;;;;7.96;76.72;95008.84;5077688;28;20439;-57
2022/12/14 00:34:56;;;;;;;1.70;0.77;;;;;;;6.66;76.65;94822.78;5078211;28;20822;-57
2022/12/14 00:37:25;;;;;;;0.70;0.60;;;;;;;7.15;76.81;94918.91;5077757;28;20474;-57
2022/12/14 00:39:53;;;;;;;0.70;0.70;;;;;;;7.21;77.57;94975.09;5077911;28;20429;-57
2022/12/14 00:42:21;;;;;;;0.93;0.93;;;;;;;7.48;77.91;95010.81;5077928;28;20922;-57
2022/12/14 00:44:51;;;;;;;0.40;0.40;;;;;;;7.29;78.40;95007.00;5077182;28;20800;-57
2022/12/14 00:47:19;;;;;;;0.50;0.50;;;;;;;7.54;78.30;95016.88;5077798;28;20512;-57
2022/12/14 00:49:47;;;;;;;0.30;0.30;;;;;;;7.35;78.42;95016.53;5077629;28;20508;-57
2022/12/14 00:52:16;;;;;;;0.97;0.97;;;;;;;6.77;79.38;94979.81;5076929;28;20421;-57
2022/12/14 00:54:44;;;;;;;1.80;0.77;;;;;;;6.90;80.25;94974.91;5077370;28;20476;-57
2022/12/14 00:57:13;;;;;;;0.73;0.73;;;;;;;6.59;81.71;94945.97;5077027;28;20529;-57
2022/12/14 00:59:41;;;;;;;0.93;0.93;;;;;;;7.08;82.50;95010.59;5077553;28;20432;-57
2022/12/14 01:02:11;;;;;;;2.43;2.23;;;;;;;7.29;81.96;95020.19;5077674;28;20484;-57
2022/12/14 01:04:39;;;;;;;1.10;0.70;;;;;;;6.11;84.86;94952.19;5077545;28;21092;-57
2022/12/14 01:07:07;;;;;;;0.87;0.87;;;;;;;6.56;89.13;95005.19;5077151;28;20438;-57
2022/12/14 01:09:36;;;;;;;6.63;0.77;;;;;;;6.28;90.56;94972.06;5077394;28;20851;-57
2022/12/14 01:12:04;;;;;;;0.90;0.90;;;;;;;6.77;90.22;95011.44;5077147;28;20439;-57
2022/12/14 01:14:33;;;;;;;1.10;1.07;;;;;;;6.89;90.24;95018.09;5076887;28;20508;-57
2022/12/14 01:17:01;;;;;;;0.80;0.80;;;;;;;6.95;89.86;95011.03;5077343;28;20418;-57
2022/12/14 01:19:31;;;;;;;3.60;2.00;;;;;;;6.92;89.74;95016.78;5075021;28;20514;-57
2022/12/14 01:21:59;;;;;;;0.90;0.90;;;;;;;7.00;88.91;94984.72;5074198;28;20426;-57
2022/12/14 01:24:28;;;;;;;0.40;0.30;;;;;;;7.36;86.40;94993.59;5074019;28;20501;-57
2022/12/14 01:26:56;;;;;;;0.90;0.80;;;;;;;7.24;84.41;94920.00;5073676;28;20418;-57
2022/12/14 01:29:24;;;;;;;3.10;0.50;;;;;;;7.29;84.18;94938.47;5073585;28;21007;-57
2022/12/14 01:31:53;;;;;;;0.40;0.33;;;;;;;7.42;84.73;95009.19;5073700;28;20433;-57
2022/12/14 01:34:21;;;;;;;0.83;0.83;;;;;;;6.99;87.66;95012.91;5072980;28;21122;-57
2022/12/14 01:36:51;;;;;;;5.90;1.07;;;;;;;6.96;89.58;95008.13;5072992;28;20840;-57
2022/12/14 01:39:19;;;;;;;1.00;0.60;;;;;;;5.90;89.67;94848.63;5074204;28;20926;-57
2022/12/14 01:41:51;;;;;;;0.40;0.40;;;;;;;7.16;89.63;95017.22;5073422;28;20434;-57
2022/12/14 01:44:52;;;;;;;0.57;0.57;;;;;;;7.40;87.51;95015.75;5072177;28;20434;-56
2022/12/14 01:47:25;;;;;;;1.70;0.70;;;;;;;7.43;86.27;95013.41;5074028;28;20782;-56
2022/12/14 01:50:00;;;;;;;1.17;1.07;;;;;;;7.08;87.87;94986.06;5073755;28;20473;-56
2022/12/14 01:52:36;;;;;;;1.47;0.90;;;;;;;6.96;88.32;94986.25;5073394;28;20535;-57
2022/12/14 01:55:08;;;;;;;0.73;0.67;;;;;;;6.77;91.07;95003.53;5072818;28;20421;-57
2022/12/14 01:57:40;;;;;;;0.60;0.50;;;;;;;7.36;89.50;95007.56;5073719;28;20426;-56
2022/12/14 02:00:12;;;;;;;1.00;0.73;;;;;;;7.67;86.85;95019.03;5074046;28;20516;-57
2022/12/14 02:02:44;;;;;;;0.43;0.43;;;;;;;7.08;87.13;95000.06;5073668;28;20903;-56
2022/12/14 02:05:14;;;;;;;0.40;0.30;;;;;;;6.95;88.41;94963.59;5072579;28;20968;-56
2022/12/14 02:07:46;;;;;;;1.70;1.70;;;;;;;6.77;89.75;95025.38;5072340;28;20437;-56
2022/12/14 02:10:16;;;;;;;0.57;0.57;;;;;;;6.48;92.00;95031.22;5073070;28;20458;-56
2022/12/14 02:12:49;;;;;;;1.10;1.10;;;;;;;6.23;94.34;95029.91;5073545;28;20458;-56
2022/12/14 02:15:18;;;;;;;1.03;0.97;;;;;;;6.05;98.04;94984.75;5071490;28;20572;-56
2022/12/14 02:17:48;;;;;;;0.97;0.97;;;;;;;6.63;97.45;95028.72;5073143;28;20953;-56
2022/12/14 02:20:17;;;;;;;1.67;1.37;;;;;;;6.60;95.15;95016.03;5071975;28;20449;-56
2022/12/14 02:23:24;;;;;;;0.50;0.50;;;;;;;5.23;95.06;94803.59;5072621;28;20480;-56
2022/12/14 02:26:18;;;;;;;0.60;0.60;;;;;;;6.60;95.92;94997.59;5071868;28;20455;-56
2022/12/14 02:29:20;;;;;;;1.20;1.10;;;;;;;7.03;93.36;94998.16;5072156;28;20473;-56
2022/12/14 02:31:56;;;;;;;2.30;0.90;;;;;;;6.91;91.30;94981.75;5069224;28;20441;-56
2022/12/14 02:34:30;;;;;;;0.70;0.60;;;;;;;5.53;94.51;94803.06;5072833;28;20429;-56
2022/12/14 02:37:09;;;;;;;0.90;0.73;;;;;;;6.13;91.31;94821.19;5071770;28;20960;-56
2022/12/14 02:39:49;;;;;;;0.87;0.87;;;;;;;7.19;89.50;95009.59;5073323;28;20418;-56
2022/12/14 02:42:28;;;;;;;3.90;1.40;;;;;;;7.10;86.42;94971.59;5072004;28;20862;-56
2022/12/14 02:45:08;;;;;;;1.17;0.50;;;;;;;7.50;84.80;95013.97;5072241;28;20800;-56
2022/12/14 02:47:42;;;;;;;1.00;0.97;;;;;;;6.94;84.88;94975.97;5072494;28;20796;-56
2022/12/14 02:50:17;;;;;;;1.00;1.00;;;;;;;7.40;85.36;95013.13;5072178;28;20499;-56
2022/12/14 02:52:53;;;;;;;0.80;0.80;;;;;;;7.55;83.73;94979.72;5071885;28;20576;-56
2022/12/14 02:55:26;;;;;;;0.70;0.70;;;;;;;7.84;81.66;94998.53;5072460;28;20433;-56
2022/12/14 02:57:59;;;;;;;3.17;0.60;;;;;;;7.76;81.48;94958.69;5072220;28;20468;-56
2022/12/14 03:00:32;;;;;;;1.33;0.73;;;;;;;7.86;81.67;94988.53;5072250;28;20414;-56
2022/12/14 03:03:02;;;;;;;0.50;0.43;;;;;;;8.00;81.23;95002.00;5071323;28;20430;-56
2022/12/14 03:05:31;;;;;;;0.47;0.47;;;;;;;7.09;84.69;94943.66;5072121;28;20434;-56
2022/12/14 03:08:03;;;;;;;0.70;0.60;;;;;;;6.32;87.50;94825.00;5072222;28;20430;-56
2022/12/14 03:10:38;;;;;;;1.03;1.03;;;;;;;6.19;88.93;94828.06;5072036;28;20973;-57
2022/12/14 03:13:15;;;;;;;0.50;0.50;;;;;;;6.83;90.60;94955.09;5072073;28;20457;-57
2022/12/14 03:15:50;;;;;;;1.83;1.73;;;;;;;6.79;92.13;94941.66;5072075;28;20432;-57
2022/12/14 03:18:21;;;;;;;4.00;2.23;;;;;;;7.41;91.59;95020.75;5072093;28;20436;-57
2022/12/14 03:20:53;;;;;;;4.00;3.33;;;;;;;5.90;95.37;94864.41;5071743;28;20883;-57
2022/12/14 03:23:26;;;;;;;5.80;0.57;;;;;;;6.29;100.00;95007.09;5071981;28;20460;-57
2022/12/14 03:26:02;;;;;;;5.27;2.53;;;;;;;5.78;100.00;94906.63;5071842;28;20933;-57
2022/12/14 03:28:37;;;;;;;1.03;1.03;;;;;;;6.66;100.00;95020.28;5071798;28;20413;-57
2022/12/14 03:31:12;;;;;;;1.00;0.90;;;;;;;5.48;100.00;94789.91;5072185;28;20425;-57
2022/12/14 03:33:43;;;;;;;1.53;1.53;;;;;;;7.00;100.00;95021.59;5071583;28;20426;-57
2022/12/14 03:36:17;;;;;;;0.60;0.60;;;;;;;6.92;100.00;95027.34;5072192;28;20430;-57
2022/12/14 03:38:50;;;;;;;2.77;0.70;;;;;;;6.84;100.00;95028.59;5071402;28;20956;-57
2022/12/14 03:41:28;;;;;;;0.50;0.47;;;;;;;7.06;100.00;95033.75;5071805;28;20434;-57
2022/12/14 03:44:19;;;;;;;0.50;0.50;;;;;;;6.23;100.00;94952.81;5071281;28;20429;-57
2022/12/14 03:46:56;;;;;;;0.83;0.80;;;;;;;6.01;100.00;94888.97;5071820;28;20425;-57
2022/12/14 03:49:39;;;;;;;1.33;0.83;;;;;;;6.60;100.00;94935.22;5071577;28;20477;-57
2022/12/14 03:52:13;;;;;;;7.50;1.03;;;;;;;7.60;100.00;95029.84;5071168;28;20430;-57
2022/12/14 03:54:51;;;;;;;3.03;1.60;;;;;;;7.43;100.00;94994.97;5071345;28;20474;-57
2022/12/14 03:57:32;;;;;;;4.67;2.97;;;;;;;7.57;100.00;95034.81;5071186;28;20508;-57
2022/12/14 04:00:04;;;;;;;3.23;2.10;;;;;;;7.52;100.00;95035.59;5069743;28;20433;-57
2022/12/14 04:02:41;;;;;;;1.73;1.60;;;;;;;7.79;100.00;95035.47;5071286;28;20438;-57
2022/12/14 04:05:16;;;;;;;1.57;1.57;;;;;;;7.70;100.00;95031.72;5071351;28;20504;-58
2022/12/14 04:07:55;;;;;;;8.13;3.60;;;;;;;7.64;100.00;95001.09;5071251;28;20433;-57
2022/12/14 04:19:06;;;;;;;0.63;0.63;;;;;;;6.33;100.00;94972.13;5070937;28;20437;-58
2022/12/14 04:21:40;;;;;;;0.40;0.40;;;;;;;6.40;100.00;95025.34;5071646;28;20443;-57
2022/12/14 04:27:03;;;;;;;0.80;0.80;;;;;;;5.64;100.00;94831.03;5071454;28;20426;-57
2022/12/14 04:32:26;;;;;;;0.47;0.47;;;;;;;7.06;100.00;95020.56;5071109;28;20475;-57
2022/12/14 04:34:59;;;;;;;0.83;0.83;;;;;;;6.95;100.00;95018.94;5071267;28;20429;-58
2022/12/14 04:37:29;;;;;;;3.50;0.83;;;;;;;6.90;100.00;95024.16;5070540;28;20520;-58
2022/12/14 04:40:04;;;;;;;0.70;0.70;;;;;;;6.96;100.00;94987.06;5071282;28;20910;-58
2022/12/14 04:42:36;;;;;;;1.67;1.00;;;;;;;6.71;100.00;94986.09;5071377;28;20480;-58
2022/12/14 04:45:10;;;;;;;11.70;3.47;;;;;;;6.72;100.00;95017.44;5070218;28;20937;-58
2022/12/14 04:47:46;;;;;;;1.03;0.93;;;;;;;6.70;100.00;94984.50;5070979;28;20437;-58
2022/12/14 04:50:23;;;;;;;0.60;0.60;;;;;;;6.56;100.00;94957.00;5070326;28;20483;-58
2022/12/14 04:52:56;;;;;;;1.27;1.27;;;;;;;7.03;100.00;95023.72;5070492;28;20469;-58
2022/12/14 04:55:33;;;;;;;0.50;0.30;;;;;;;7.22;100.00;95032.81;5072633;28;20437;-58
2022/12/14 04:58:08;;;;;;;2.83;1.60;;;;;;;6.46;100.00;94891.94;5074639;28;20437;-58
2022/12/14 05:00:44;;;;;;;1.00;1.00;;;;;;;7.34;100.00;95009.66;5074725;28;20918;-58
2022/12/14 05:03:23;;;;;;;0.50;0.40;;;;;;;6.39;100.00;94886.09;5074784;28;20441;-57
2022/12/14 05:06:06;;;;;;;0.80;0.80;;;;;;;6.68;100.00;94978.72;5073890;28;20425;-57
2022/12/14 05:08:55;;;;;;;1.13;1.03;;;;;;;7.10;100.00;95034.84;5074744;28;20429;-57
2022/12/14 05:11:29;;;;;;;0.70;0.70;;;;;;;6.21;100.00;94868.88;5074221;28;20491;-58
2022/12/14 05:14:22;;;;;;;1.23;0.50;;;;;;;6.98;100.00;94989.44;5073885;28;20425;-58
2022/12/14 05:16:51;;;;;;;0.80;0.80;;;;;;;7.11;100.00;95041.69;5074224;28;20449;-57
2022/12/14 05:19:25;;;;;;;0.40;0.40;;;;;;;6.45;100.00;94958.00;5074273;28;20429;-60
2022/12/14 05:21:55;;;;;;;4.80;1.40;;;;;;;7.03;100.00;95040.31;5074700;28;20468;-58
2022/12/14 05:24:23;;;;;;;2.67;1.93;;;;;;;7.11;100.00;95044.31;5074453;28;20774;-57
2022/12/14 05:26:52;;;;;;;1.57;1.47;;;;;;;6.83;100.00;94999.88;5074043;28;20516;-56
2022/12/14 05:29:20;;;;;;;4.50;4.10;;;;;;;7.12;100.00;95026.66;5073834;28;20457;-56
2022/12/14 05:31:48;;;;;;;2.03;1.93;;;;;;;7.15;100.00;95047.25;5073817;28;20568;-56
2022/12/14 05:34:17;;;;;;;5.67;1.80;;;;;;;6.81;100.00;95055.44;5074002;28;20449;-56
2022/12/14 05:36:45;;;;;;;1.70;1.30;;;;;;;6.85;100.00;95055.75;5073774;28;21001;-56
2022/12/14 05:39:16;;;;;;;7.80;1.67;;;;;;;6.69;100.00;95064.56;5073378;28;20484;-55
2022/12/14 05:41:44;;;;;;;1.47;1.33;;;;;;;6.80;100.00;95063.59;5073513;28;20957;-57
2022/12/14 05:44:12;;;;;;;1.50;1.40;;;;;;;6.87;100.00;95058.91;5073706;28;20898;-57
2022/12/14 05:46:41;;;;;;;1.33;1.23;;;;;;;6.62;100.00;95058.69;5073561;28;20426;-57
2022/12/14 05:49:09;;;;;;;1.07;0.83;;;;;;;5.28;100.00;94852.75;5073887;28;20421;-57
2022/12/14 05:51:38;;;;;;;5.10;1.57;;;;;;;6.77;100.00;95072.00;5073754;28;20489;-57
2022/12/14 05:54:06;;;;;;;2.20;2.10;;;;;;;6.45;100.00;95029.06;5073026;28;21025;-58
2022/12/14 05:56:36;;;;;;;0.60;0.60;;;;;;;6.94;100.00;95035.78;5073104;28;20959;-57
2022/12/14 05:59:06;;;;;;;1.50;1.40;;;;;;;7.19;100.00;95078.09;5072847;28;20537;-57
2022/12/14 06:01:34;;;;;;;1.23;1.23;;;;;;;6.72;100.00;95069.31;5073184;28;20898;-57
2022/12/14 06:04:02;;;;;;;1.50;0.93;;;;;;;7.01;100.00;95096.94;5073143;28;20453;-56
2022/12/14 06:06:33;;;;;;;2.87;2.67;;;;;;;6.91;100.00;95058.16;5072754;28;20431;-56
2022/12/14 06:09:01;;;;;;;3.07;1.80;;;;;;;7.27;100.00;95095.28;5073630;28;20805;-56
2022/12/14 06:11:30;;;;;;;2.13;1.50;;;;;;;6.66;100.00;95017.66;5073122;28;20511;-56
2022/12/14 06:13:59;;;;;;;1.20;1.20;;;;;;;7.30;100.00;95094.78;5073018;28;20432;-56
2022/12/14 06:16:28;;;;;;;2.90;2.70;;;;;;;7.30;100.00;95107.97;5073499;28;20910;-56
2022/12/14 06:18:57;;;;;;;1.17;0.83;;;;;;;5.97;100.00;94998.38;5072868;28;20429;-57
2022/12/14 06:21:27;;;;;;;1.90;1.53;;;;;;;6.69;100.00;95106.69;5073119;28;20425;-57
2022/12/14 06:23:57;;;;;;;1.97;1.87;;;;;;;6.91;100.00;95102.13;5073210;28;20800;-57
2022/12/14 06:26:26;;;;;;;1.43;1.43;;;;;;;7.13;100.00;95102.06;5073121;28;20442;-57
2022/12/14 06:28:56;;;;;;;2.63;2.43;;;;;;;6.07;100.00;94911.66;5072679;28;20520;-57
2022/12/14 06:31:28;;;;;;;1.13;1.13;;;;;;;7.27;100.00;95103.19;5073341;28;20476;-57
2022/12/14 06:33:59;;;;;;;0.73;0.73;;;;;;;7.37;100.00;95098.00;5072896;28;20434;-57
2022/12/14 06:36:29;;;;;;;1.27;1.27;;;;;;;7.50;100.00;95102.81;5073093;28;20422;-57
2022/12/14 06:39:01;;;;;;;1.07;1.07;;;;;;;6.42;100.00;94940.06;5072964;28;20517;-57
2022/12/14 06:41:29;;;;;;;5.10;1.43;;;;;;;7.27;100.00;95098.72;5072600;28;20429;-57
2022/12/14 06:44:04;;;;;;;0.50;0.40;;;;;;;6.80;100.00;95029.34;5072691;28;20541;-57
2022/12/14 06:46:35;;;;;;;1.77;1.67;;;;;;;7.39;100.00;95091.41;5073062;28;20448;-57
2022/12/14 06:49:05;;;;;;;0.73;0.73;;;;;;;7.46;100.00;95091.22;5072311;28;20430;-57
2022/12/14 06:51:39;;;;;;;2.30;0.93;;;;;;;7.42;100.00;95079.56;5072487;28;20983;-57
2022/12/14 06:54:08;;;;;;;1.33;1.30;;;;;;;7.52;100.00;95087.53;5072311;28;20466;-57
2022/12/14 06:56:36;;;;;;;2.00;0.87;;;;;;;7.59;100.00;95102.09;5072575;28;20418;-58
2022/12/14 06:59:05;;;;;;;1.33;1.23;;;;;;;7.65;100.00;95111.63;5072688;28;20520;-57
2022/12/14 07:01:36;;;;;;;0.43;0.33;;;;;;;7.76;100.00;95094.00;5072457;28;20890;-57
2022/12/14 07:04:05;;;;;;;1.20;1.20;;;;;;;7.69;100.00;95112.69;5072346;28;20914;-57
2022/12/14 07:06:36;;;;;;;1.33;1.23;;;;;;;7.65;100.00;95119.53;5071727;28;20430;-58
2022/12/14 07:09:05;;;;;;;3.63;1.67;;;;;;;7.56;100.00;95118.41;5072280;28;20512;-57
2022/12/14 07:11:34;;;;;;;3.97;3.67;;;;;;;6.29;100.00;94928.94;5071740;28;20564;-58
2022/12/14 07:14:05;;;;;;;2.80;2.70;;;;;;;6.28;100.00;94943.13;5072000;28;20433;-58
2022/12/14 07:16:36;;;;;;;1.23;1.13;;;;;;;7.39;100.00;95133.59;5071821;28;20495;-56
2022/12/14 07:19:04;;;;;;;1.70;1.60;;;;;;;6.74;100.00;95004.81;5071407;28;20902;-57
2022/12/14 07:21:33;;;;;;;2.57;2.40;;;;;;;7.15;100.00;95058.59;5071952;28;20499;-57
2022/12/14 07:24:02;;;;;;;1.40;1.40;;;;;;;6.92;100.00;95041.31;5071725;28;20426;-57
2022/12/14 07:26:30;;;;;;;2.57;2.47;;;;;;;7.35;100.00;95063.97;5071414;28;20414;-57
2022/12/14 07:29:00;;;;;;;1.47;1.37;;;;;;;7.90;100.00;95139.97;5072052;28;20434;-57
2022/12/14 07:31:29;;;;;;;0.80;0.80;;;;;;;7.37;100.00;95069.00;5071899;28;20480;-57
2022/12/14 07:34:00;;;;;;;2.40;1.53;;;;;;;7.66;100.00;95123.75;5072106;28;20454;-57
2022/12/14 07:36:31;;;;;;;2.63;2.53;;;;;;;6.69;100.00;94952.13;5072100;28;20422;-57
2022/12/14 07:39:00;;;;;;;3.50;3.00;;;;;;;7.90;100.00;95137.34;5071900;28;20914;-58
2022/12/14 07:41:30;;;;;;;1.33;0.90;;;;;;;7.94;100.00;95138.44;5071680;28;20441;-58
2022/12/14 07:44:00;;;;;;;0.77;0.77;;;;;;;8.18;100.00;95129.03;5071677;28;20918;-58
2022/12/14 07:46:30;;;;;;;0.70;0.70;;;;;;;8.20;99.63;95136.66;5071321;28;20487;-57
2022/12/14 07:49:01;;;;;;;1.57;1.47;;;;;;;7.68;100.00;95148.03;5071925;28;20491;-58
2022/12/14 07:51:32;;;;;;;2.03;1.13;;;;;;;7.36;100.00;95149.16;5071631;28;20949;-58
2022/12/14 07:54:01;;;;;;;0.70;0.60;;;;;;;6.81;100.00;95083.59;5070699;28;20476;-58
2022/12/14 07:56:30;;;;;;;1.57;1.47;;;;;;;7.42;100.00;95154.19;5071535;28;20426;-57
2022/12/14 07:59:02;;;;;;;1.93;1.70;;;;;;;7.23;100.00;95107.41;5071633;28;20429;-57
2022/12/14 08:01:32;;;;;;;1.37;1.37;;;;;;;6.47;100.00;95025.16;5071507;28;20445;-57
2022/12/14 08:04:06;;;;;;;2.03;1.03;;;;;;;7.29;100.00;95154.63;5071486;28;20831;-58
2022/12/14 08:06:35;;;;;;;3.90;0.93;;;;;;;6.59;100.00;94965.22;5071744;28;20457;-56
2022/12/14 08:09:05;;;;;;;3.70;1.30;;;;;;;7.20;100.00;95119.25;5071819;28;20426;-56
2022/12/14 08:11:34;;;;;;;0.70;0.70;;;;;;;7.64;100.00;95157.50;5071243;28;20531;-56
2022/12/14 08:14:04;;;;;;;0.80;0.60;;;;;;;7.24;100.00;95136.13;5071579;28;20430;-57
2022/12/14 08:16:33;;;;;;;0.70;0.70;;;;;;;7.34;100.00;95140.69;5071730;28;20428;-58
2022/12/14 08:19:03;;;;;;;1.53;1.33;;;;;;;7.01;100.00;95113.56;5071805;28;20552;-58
2022/12/14 08:21:31;;;;;;;1.87;1.77;;;;;;;6.82;100.00;95120.25;5071531;28;20426;-58
2022/12/14 08:24:00;;;;;;;1.87;1.77;;;;;;;7.14;100.00;95172.94;5071385;28;20447;-58
2022/12/14 08:26:28;;;;;;;1.47;1.47;;;;;;;7.40;100.00;95151.03;5071454;28;20426;-58
2022/12/14 08:29:03;;;;;;;1.70;1.10;;;;;;;7.21;100.00;95162.97;5072725;28;20933;-58
2022/12/14 08:31:32;;;;;;;2.00;1.90;;;;;;;6.27;100.00;95015.22;5075256;28;20925;-58
2022/12/14 08:34:02;;;;;;;16.43;1.40;;;;;;;7.04;100.00;95067.47;5075342;28;20761;-58
2022/12/14 08:36:32;;;;;;;2.57;2.47;;;;;;;7.81;100.00;95162.63;5074420;28;20441;-56
2022/12/14 08:39:04;;;;;;;1.77;1.67;;;;;;;7.83;100.00;95165.00;5074976;28;20925;-57
2022/12/14 08:41:32;;;;;;;1.30;0.93;;;;;;;7.85;100.00;95110.94;5074850;28;20422;-57
2022/12/14 08:44:02;;;;;;;1.80;1.70;;;;;;;8.62;97.72;95168.28;5075289;28;20529;-56
2022/12/14 08:46:32;;;;;;;0.40;0.40;;;;;;;8.23;96.38;95109.75;5075222;28;20834;-57
2022/12/14 08:49:02;;;;;;;0.80;0.80;;;;;;;8.46;96.94;95156.88;5074898;28;20931;-57
2022/12/14 08:51:31;;;;;;;1.07;1.07;;;;;;;8.39;98.84;95166.88;5074145;28;20432;-56
2022/12/14 08:53:59;;;;;;;2.90;1.43;;;;;;;8.32;100.00;95159.19;5074554;28;20477;-56
2022/12/14 08:56:28;;;;;;;0.50;0.50;;;;;;;8.27;100.00;95151.25;5075050;28;20783;-57
2022/12/14 08:58:57;;;;;;;2.50;2.30;;;;;;;7.61;100.00;95165.13;5074715;28;20953;-57
2022/12/14 09:01:27;;;;;;;1.03;1.03;;;;;;;8.10;100.00;95160.38;5074675;28;20426;-57
2022/12/14 09:04:07;;;;;;;2.10;1.33;;;;;;;8.22;97.98;95101.03;5075001;28;20458;-56
2022/12/14 09:06:38;;;;;;;1.03;0.90;;;;;;;8.44;94.46;95153.69;5074867;28;21171;-57
2022/12/14 09:09:08;;;;;;;0.87;0.67;;;;;;;8.72;93.29;95153.25;5074787;28;20437;-58
2022/12/14 09:11:43;;;;;;;1.07;0.60;;;;;;;8.90;91.28;95159.91;5074296;28;20500;-57
2022/12/14 09:14:12;;;;;;;0.80;0.80;;;;;;;8.52;93.21;95110.16;5074501;28;20480;-57
2022/12/14 09:16:41;;;;;;;1.00;1.00;;;;;;;8.42;92.22;95162.94;5074651;28;20435;-57
2022/12/14 09:19:11;;;;;;;0.83;0.83;;;;;;;8.84;90.32;95153.81;5074413;28;20429;-57
2022/12/14 09:21:39;;;;;;;1.20;0.83;;;;;;;8.46;92.32;95148.94;5074025;28;20429;-57
2022/12/14 09:24:09;;;;;;;0.60;0.60;;;;;;;8.70;90.88;95144.00;5074238;28;20438;-57
2022/12/14 09:26:37;;;;;;;1.10;1.10;;;;;;;8.38;91.69;95109.03;5074341;28;20461;-56
2022/12/14 09:29:06;;;;;;;1.40;1.40;;;;;;;8.60;91.51;95142.09;5074157;28;20941;-57
2022/12/14 09:31:34;;;;;;;2.57;2.47;;;;;;;8.79;90.33;95150.34;5074407;28;20430;-56
2022/12/14 09:34:03;;;;;;;0.40;0.30;;;;;;;8.25;91.63;95094.44;5074122;28;20832;-56
2022/12/14 09:36:33;;;;;;;1.83;1.73;;;;;;;8.65;91.54;95146.63;5074065;28;20441;-58
2022/12/14 09:39:02;;;;;;;1.30;0.90;;;;;;;8.69;91.67;95143.19;5074047;28;20517;-57
2022/12/14 09:41:42;;;;;;;1.40;0.60;;;;;;;7.09;93.49;94966.56;5073302;28;20429;-57
2022/12/14 09:44:17;;;;;;;0.80;0.80;;;;;;;8.10;93.10;95086.47;5073538;28;20799;-57
2022/12/14 09:46:59;;;;;;;1.33;1.23;;;;;;;8.16;93.81;95127.69;5073927;28;20440;-57
2022/12/14 09:49:30;;;;;;;0.40;0.30;;;;;;;8.08;92.31;95089.38;5072973;28;20428;-57
2022/12/14 09:52:03;;;;;;;1.60;1.40;;;;;;;8.57;91.45;95144.50;5073744;28;20426;-57
2022/12/14 09:54:34;;;;;;;1.27;1.17;;;;;;;8.40;90.99;95105.09;5073610;28;20477;-58
2022/12/14 09:57:11;;;;;;;0.40;0.30;;;;;;;8.19;90.66;95063.81;5073809;28;20542;-56
2022/12/14 09:59:40;;;;;;;2.83;0.80;;;;;;;8.49;91.75;95139.72;5073505;28;20418;-56
2022/12/14 10:02:34;;;;;;;1.37;1.00;;;;;;;8.23;92.25;95107.13;5072583;28;20422;-56
2022/12/14 10:05:24;;;;;;;0.83;0.83;;;;;;;6.61;92.73;94892.03;5071686;28;20442;-56
2022/12/14 10:08:03;;;;;;;6.03;2.37;;;;;;;8.13;95.31;95123.72;5073736;28;20425;-57
2022/12/14 10:10:40;;;;;;;1.17;1.07;;;;;;;7.87;96.57;95093.00;5072855;28;20509;-56
2022/12/14 10:13:19;;;;;;;1.90;1.50;;;;;;;7.39;99.64;95033.41;5073254;28;20553;-56
2022/12/14 10:16:00;;;;;;;1.37;1.33;;;;;;;8.03;99.16;95112.31;5073456;28;20438;-56
2022/12/14 10:18:49;;;;;;;3.23;1.87;;;;;;;7.03;97.98;94915.69;5072358;28;20422;-57
2022/12/14 10:21:39;;;;;;;0.60;0.60;;;;;;;8.61;96.40;95112.00;5073187;28;20450;-56
2022/12/14 10:24:16;;;;;;;2.40;1.90;;;;;;;8.43;93.11;95049.09;5072934;28;20918;-56
2022/12/14 10:26:49;;;;;;;4.90;1.67;;;;;;;7.67;93.77;94972.38;5073408;28;20542;-56
2022/12/14 10:29:25;;;;;;;2.37;1.80;;;;;;;8.31;95.51;95090.81;5073271;28;20471;-56
2022/12/14 10:32:03;;;;;;;1.70;1.20;;;;;;;8.29;95.37;95079.72;5073219;28;20422;-56
2022/12/14 10:34:33;;;;;;;0.80;0.80;;;;;;;8.67;94.81;95100.41;5072955;28;20481;-56
2022/12/14 10:37:12;;;;;;;0.50;0.47;;;;;;;8.59;96.75;95097.47;5073168;28;20453;-56
2022/12/14 10:39:53;;;;;;;0.70;0.70;;;;;;;8.46;99.15;95075.00;5073182;28;20556;-56
2022/12/14 10:42:29;;;;;;;0.40;0.30;;;;;;;8.57;100.00;95087.19;5072400;28;20438;-56
2022/12/14 10:45:13;;;;;;;0.70;0.60;;;;;;;6.79;100.00;94809.16;5072813;28;20439;-57
2022/12/14 10:48:21;;;;;;;1.00;0.73;;;;;;;8.39;100.00;95065.75;5071641;28;20468;-56
2022/12/14 10:50:55;;;;;;;1.07;0.97;;;;;;;8.47;100.00;95078.44;5072688;28;20454;-56
2022/12/14 10:53:31;;;;;;;1.47;1.43;;;;;;;8.32;100.00;95058.09;5072240;28;20480;-56
2022/12/14 10:56:16;;;;;;;0.73;0.73;;;;;;;8.36;100.00;95077.63;5072075;28;20429;-56
2022/12/14 10:58:45;;;;;;;0.60;0.60;;;;;;;8.08;100.00;95078.84;5072354;28;20427;-55
2022/12/14 11:01:14;;;;;;;2.73;2.53;;;;;;;8.43;100.00;95070.25;5072403;28;21097;-56
2022/12/14 11:03:47;;;;;;;1.23;1.20;;;;;;;8.24;100.00;95048.78;5071281;28;20466;-57
2022/12/14 11:06:19;;;;;;;0.80;0.77;;;;;;;8.49;100.00;95071.03;5072364;28;20418;-56
2022/12/14 11:08:49;;;;;;;0.97;0.97;;;;;;;8.19;100.00;95050.63;5072288;28;20422;-57
2022/12/14 11:11:22;;;;;;;2.60;1.63;;;;;;;8.33;100.00;95059.66;5072646;28;20935;-57
2022/12/14 11:13:53;;;;;;;0.70;0.70;;;;;;;8.29;100.00;95058.59;5072186;28;20481;-57
2022/12/14 11:16:28;;;;;;;1.33;1.33;;;;;;;8.28;100.00;95046.44;5072299;28;20437;-57
2022/12/14 11:19:06;;;;;;;0.63;0.63;;;;;;;8.15;100.00;95038.97;5072490;28;20823;-57
2022/12/14 11:21:37;;;;;;;1.60;0.83;;;;;;;8.47;100.00;95060.75;5072092;28;20470;-57
2022/12/14 11:24:06;;;;;;;1.23;1.23;;;;;;;8.24;100.00;95053.28;5072123;28;20941;-57
2022/12/14 11:26:40;;;;;;;0.93;0.83;;;;;;;7.96;100.00;94969.28;5072021;28;20438;-56
2022/12/14 11:29:19;;;;;;;0.80;0.80;;;;;;;8.07;100.00;95018.41;5071986;28;20433;-57
2022/12/14 11:31:51;;;;;;;0.70;0.70;;;;;;;8.48;100.00;95046.47;5071914;28;20487;-57
2022/12/14 11:34:25;;;;;;;1.03;1.03;;;;;;;7.71;100.00;94983.19;5072113;28;20465;-61
2022/12/14 11:36:54;;;;;;;1.33;1.23;;;;;;;7.35;100.00;95000.72;5071615;28;20437;-57
2022/12/14 11:39:24;;;;;;;2.13;1.87;;;;;;;7.74;100.00;95039.91;5072031;28;20434;-57
2022/12/14 11:42:03;;;;;;;2.93;2.83;;;;;;;7.80;100.00;95000.09;5071687;28;20433;-55
2022/12/14 11:44:34;;;;;;;3.20;1.63;;;;;;;8.23;100.00;95030.56;5072108;28;20471;-56
2022/12/14 11:47:07;;;;;;;1.80;1.70;;;;;;;8.17;100.00;94965.63;5072060;28;20455;-57
2022/12/14 11:49:43;;;;;;;1.80;1.70;;;;;;;7.40;100.00;94860.22;5070961;28;20430;-57
2022/12/14 11:52:13;;;;;;;1.30;1.20;;;;;;;8.48;98.88;95025.34;5071548;28;20953;-56
2022/12/14 11:54:43;;;;;;;1.27;1.27;;;;;;;7.63;100.00;94958.13;5071348;28;20481;-57
2022/12/14 11:57:27;;;;;;;1.33;0.57;;;;;;;8.13;100.00;95025.25;5071527;28;20520;-57
2022/12/14 11:59:58;;;;;;;6.53;2.13;;;;;;;7.76;100.00;95035.19;5070521;28;20417;-56
2022/12/14 12:02:30;;;;;;;5.50;1.00;;;;;;;8.02;100.00;95032.34;5071457;28;20922;-56
2022/12/14 12:05:05;;;;;;;2.63;2.53;;;;;;;7.80;100.00;94949.19;5070684;28;20425;-56
2022/12/14 12:07:36;;;;;;;1.43;1.43;;;;;;;7.19;100.00;94875.16;5071649;28;20428;-56
2022/12/14 12:10:15;;;;;;;0.83;0.83;;;;;;;8.13;100.00;94962.72;5071572;28;20792;-56
2022/12/14 12:12:53;;;;;;;1.13;1.13;;;;;;;8.52;100.00;95005.28;5070626;28;20913;-56
2022/12/14 12:15:25;;;;;;;1.13;0.60;;;;;;;8.78;100.00;95035.94;5071254;28;20990;-57